Time;durP1;ratioP1;P1;durP2;ratioP2;P2;SDS_P1;SDS_P2;PMS_P1;PMS_P2;Temp;Humidity;BMP_temperature;BMP_pressure;BME280_temperature;BME280_humidity;BME280_pressure;Samples;Min_cycle;Max_cycle;Signal;HPM_P1;HPM_P2
2021/07/29 00:00:13;;;;;;;5.83;4.00;;;;;;;15.69;84.54;100450.91;694336;28;1259;-52
2021/07/29 00:00:35;;;;;;;5.80;4.10;;;;;;;15.74;82.63;100453.41;693800;28;1453;-52
2021/07/29 00:00:56;;;;;;;5.60;3.83;;;;;;;15.78;84.52;100449.75;693772;28;1510;-56
2021/07/29 00:01:17;;;;;;;6.45;4.20;;;;;;;15.72;85.28;100452.59;692691;28;1103;-52
2021/07/29 00:01:37;;;;;;;6.97;4.27;;;;;;;15.66;85.39;100449.22;692871;28;1162;-55
2021/07/29 00:01:57;;;;;;;7.25;4.50;;;;;;;15.67;85.17;100450.06;693446;28;1228;-55
2021/07/29 00:02:18;;;;;;;6.43;4.00;;;;;;;15.66;84.54;100454.50;692357;28;4339;-52
2021/07/29 00:02:38;;;;;;;5.95;3.95;;;;;;;15.69;84.86;100453.53;692682;28;1140;-53
2021/07/29 00:02:59;;;;;;;6.23;4.00;;;;;;;15.68;85.00;100450.97;693884;28;3601;-54
2021/07/29 00:03:19;;;;;;;6.43;4.13;;;;;;;15.68;83.94;100443.06;693792;28;2177;-56
2021/07/29 00:03:40;;;;;;;6.17;4.00;;;;;;;15.68;84.67;100449.19;693505;28;2155;-53
2021/07/29 00:04:00;;;;;;;5.78;4.20;;;;;;;15.67;85.27;100450.06;695650;28;1282;-53
2021/07/29 00:04:20;;;;;;;6.10;4.13;;;;;;;15.63;85.80;100438.78;694414;28;1366;-52
2021/07/29 00:04:41;;;;;;;7.37;4.40;;;;;;;15.61;85.88;100440.59;693707;28;1135;-55
2021/07/29 00:05:01;;;;;;;8.52;4.55;;;;;;;15.60;86.01;100436.25;694322;28;1183;-53
2021/07/29 00:05:21;;;;;;;8.43;4.63;;;;;;;15.58;85.53;100440.69;693889;28;4439;-53
2021/07/29 00:05:42;;;;;;;6.75;4.47;;;;;;;15.57;85.14;100436.31;694000;28;1398;-54
2021/07/29 00:06:02;;;;;;;6.53;4.10;;;;;;;15.55;85.74;100430.25;694621;28;2650;-54
2021/07/29 00:06:22;;;;;;;7.67;4.13;;;;;;;15.49;86.43;100435.66;693773;28;3581;-53
2021/07/29 00:06:43;;;;;;;6.35;4.10;;;;;;;15.46;86.57;100436.63;691091;28;1209;-52
2021/07/29 00:07:03;;;;;;;6.57;4.20;;;;;;;15.43;86.45;100434.06;691327;28;1930;-52
2021/07/29 00:07:24;;;;;;;6.93;4.40;;;;;;;15.42;86.39;100434.97;687929;28;1063;-55
2021/07/29 00:07:44;;;;;;;7.00;4.10;;;;;;;15.43;85.23;100430.59;687869;28;1400;-54
2021/07/29 00:08:05;;;;;;;6.97;4.03;;;;;;;15.46;84.93;100427.84;688177;28;1571;-53
2021/07/29 00:08:25;;;;;;;7.90;4.10;;;;;;;15.52;84.51;100430.34;690536;28;4353;-52
2021/07/29 00:08:45;;;;;;;6.93;3.95;;;;;;;15.54;84.58;100433.78;691423;28;1148;-55
2021/07/29 00:09:06;;;;;;;5.50;3.63;;;;;;;15.62;82.72;100426.50;693978;28;1274;-52
2021/07/29 00:09:26;;;;;;;5.80;3.97;;;;;;;15.68;84.09;100435.16;695055;28;1226;-57
2021/07/29 00:09:47;;;;;;;5.82;4.07;;;;;;;15.69;84.64;100427.19;692964;28;1087;-55
2021/07/29 00:10:08;;;;;;;6.40;4.22;;;;;;;15.67;85.56;100429.00;692378;28;1431;-55
2021/07/29 00:10:29;;;;;;;7.50;4.20;;;;;;;15.62;85.81;100426.50;692966;28;3260;-55
2021/07/29 00:10:50;;;;;;;7.78;4.28;;;;;;;15.59;85.88;100423.97;692339;28;3390;-56
2021/07/29 00:11:11;;;;;;;5.80;4.10;;;;;;;15.54;86.05;100419.75;692702;28;4598;-54
2021/07/29 00:11:32;;;;;;;6.07;4.10;;;;;;;15.53;84.80;100426.75;693446;28;999;-53
2021/07/29 00:11:53;;;;;;;6.65;4.20;;;;;;;15.54;85.44;100425.00;693099;28;1389;-55
2021/07/29 00:12:13;;;;;;;6.32;4.10;;;;;;;15.51;86.20;100423.34;693789;28;1110;-54
2021/07/29 00:12:34;;;;;;;6.70;4.20;;;;;;;15.53;85.03;100421.50;694276;28;1676;-54
2021/07/29 00:12:54;;;;;;;6.03;4.00;;;;;;;15.54;85.30;100419.75;694343;28;1027;-55
2021/07/29 00:13:16;;;;;;;5.90;4.10;;;;;;;15.55;85.79;100422.34;694071;28;1150;-54
2021/07/29 00:13:38;;;;;;;5.90;4.07;;;;;;;15.55;86.23;100421.44;693971;28;1110;-54
2021/07/29 00:14:00;;;;;;;5.97;4.00;;;;;;;15.54;85.46;100423.22;691796;28;1230;-56
2021/07/29 00:14:21;;;;;;;6.25;4.07;;;;;;;15.53;86.00;100413.59;692845;28;4299;-56
2021/07/29 00:14:49;;;;;;;6.73;4.40;;;;;;;15.49;86.84;100422.50;692972;28;3722;-54
2021/07/29 00:15:12;;;;;;;6.65;4.10;;;;;;;15.38;87.05;100417.56;693171;28;1099;-55
2021/07/29 00:15:32;;;;;;;6.78;4.50;;;;;;;15.36;86.08;100413.25;692985;28;2629;-55
2021/07/29 00:15:53;;;;;;;6.70;4.20;;;;;;;15.35;86.66;100417.63;693631;28;999;-53
2021/07/29 00:16:13;;;;;;;5.83;4.10;;;;;;;15.35;86.95;100417.63;693861;28;1028;-54
2021/07/29 00:16:42;;;;;;;5.97;4.25;;;;;;;15.33;87.22;100415.03;694107;28;1700;-57
2021/07/29 00:17:04;;;;;;;8.00;4.25;;;;;;;15.32;86.79;100418.56;694061;28;1120;-54
2021/07/29 00:19:02;;;;;;;7.28;4.13;;;;;;;15.39;85.40;100418.41;693555;28;4686;-52
2021/07/29 00:19:08;;;;;;;5.93;3.85;;;;;;;15.67;84.53;100429.00;692988;28;1604;-52
2021/07/29 00:19:28;;;;;;;6.55;4.22;;;;;;;15.64;85.53;100429.94;693842;28;1210;-55
2021/07/29 00:19:49;;;;;;;6.73;4.50;;;;;;;15.69;85.12;100427.19;693538;28;1474;-55
2021/07/29 00:20:09;;;;;;;6.00;4.18;;;;;;;15.68;83.94;100425.47;692637;28;4463;-55
2021/07/29 00:20:30;;;;;;;5.97;3.80;;;;;;;15.70;83.97;100430.69;693051;28;2182;-55
2021/07/29 00:20:50;;;;;;;6.83;4.03;;;;;;;15.66;85.00;100430.78;693218;28;3770;-53
2021/07/29 00:21:10;;;;;;;7.53;4.13;;;;;;;15.64;84.32;100427.31;693777;28;1309;-56
2021/07/29 00:21:33;;;;;;;5.80;3.80;;;;;;;15.69;83.45;100426.31;692583;28;4083;-56
2021/07/29 00:21:53;;;;;;;6.40;4.10;;;;;;;15.69;85.24;100423.69;692602;28;1723;-52
2021/07/29 00:22:13;;;;;;;6.10;4.20;;;;;;;15.69;85.55;100426.31;693786;28;1122;-52
2021/07/29 00:22:34;;;;;;;6.60;4.35;;;;;;;15.75;85.11;100426.16;693524;28;1298;-56
2021/07/29 00:22:59;;;;;;;6.77;4.30;;;;;;;15.92;83.61;100425.66;693815;28;1129;-56
2021/07/29 00:23:19;;;;;;;6.25;4.20;;;;;;;16.07;82.71;100426.97;693643;28;4417;-56
2021/07/29 00:23:40;;;;;;;6.38;4.20;;;;;;;16.23;82.51;100422.06;692189;28;1188;-54
2021/07/29 00:24:01;;;;;;;6.93;4.20;;;;;;;16.18;81.84;100416.94;693727;28;1965;-53
2021/07/29 00:24:25;;;;;;;7.40;4.20;;;;;;;16.13;82.41;100416.22;693031;28;1063;-52
2021/07/29 00:24:45;;;;;;;6.40;4.15;;;;;;;16.04;83.22;100421.78;692040;28;3907;-56
2021/07/29 00:25:07;;;;;;;7.27;4.37;;;;;;;15.89;84.40;100420.47;692973;28;1310;-52
2021/07/29 00:25:28;;;;;;;6.38;4.20;;;;;;;15.83;84.47;100424.19;693667;28;1498;-55
2021/07/29 00:25:48;;;;;;;7.28;4.10;;;;;;;15.70;85.26;100423.66;693368;28;1267;-53
2021/07/29 00:26:09;;;;;;;7.93;4.40;;;;;;;15.64;85.35;100418.56;692917;28;4521;-54
2021/07/29 00:26:30;;;;;;;6.60;4.25;;;;;;;15.59;85.34;100416.06;692444;28;1420;-54
2021/07/29 00:26:51;;;;;;;6.35;4.10;;;;;;;15.55;86.31;100424.97;693488;28;1372;-54
2021/07/29 00:27:11;;;;;;;7.68;4.20;;;;;;;15.55;85.14;100419.69;690806;28;1914;-56
2021/07/29 00:27:34;;;;;;;6.47;4.10;;;;;;;15.57;83.94;100417.00;692864;28;1445;-53
2021/07/29 00:27:56;;;;;;;5.63;4.20;;;;;;;15.59;84.35;100409.91;694389;28;1056;-54
2021/07/29 00:28:16;;;;;;;6.68;4.38;;;;;;;15.56;84.68;100416.16;693292;28;3347;-56
2021/07/29 00:28:36;;;;;;;7.30;4.30;;;;;;;15.57;83.89;100423.13;692507;28;1514;-55
2021/07/29 00:28:57;;;;;;;6.77;4.30;;;;;;;15.56;84.54;100410.91;693075;28;3755;-52
2021/07/29 00:29:17;;;;;;;6.80;4.15;;;;;;;15.55;84.93;100409.16;692252;28;4362;-51
2021/07/29 00:29:38;;;;;;;6.67;4.30;;;;;;;15.53;85.73;100403.06;692994;28;1362;-56
2021/07/29 00:29:58;;;;;;;6.90;4.00;;;;;;;15.52;85.83;100406.63;693861;28;1264;-53
2021/07/29 00:30:20;;;;;;;6.73;4.03;;;;;;;15.57;85.46;100401.22;693480;28;1272;-53
2021/07/29 00:30:41;;;;;;;6.95;4.20;;;;;;;15.68;85.11;100404.38;693178;28;1224;-53
2021/07/29 00:31:01;;;;;;;6.57;4.07;;;;;;;15.77;83.47;100397.97;694392;28;1188;-55
2021/07/29 00:31:34;;;;;;;7.33;4.23;;;;;;;15.75;82.66;100410.34;694359;28;1044;-52
2021/07/29 00:31:55;;;;;;;6.72;4.15;;;;;;;15.73;82.91;100410.38;693529;28;1084;-54
2021/07/29 00:32:15;;;;;;;5.70;3.90;;;;;;;15.72;83.40;100410.44;694183;28;5189;-55
2021/07/29 00:32:36;;;;;;;6.25;3.75;;;;;;;15.72;83.04;100407.78;694427;28;2516;-55
2021/07/29 00:32:56;;;;;;;5.22;3.65;;;;;;;15.70;84.65;100409.59;692570;28;3462;-52
2021/07/29 00:33:17;;;;;;;5.30;3.80;;;;;;;15.69;83.84;100403.47;692396;28;1176;-52
2021/07/29 00:33:37;;;;;;;6.40;4.20;;;;;;;15.62;84.26;100404.56;694157;28;2083;-53
2021/07/29 00:33:58;;;;;;;6.13;4.00;;;;;;;15.60;84.48;100402.00;693748;28;1404;-52
2021/07/29 00:34:19;;;;;;;5.78;3.88;;;;;;;15.58;84.85;100402.94;694503;28;1451;-52
2021/07/29 00:34:39;;;;;;;6.50;4.50;;;;;;;15.56;84.92;100404.75;693580;28;1931;-53
2021/07/29 00:35:03;;;;;;;6.30;4.13;;;;;;;15.48;85.62;100405.00;693387;28;1130;-55
2021/07/29 00:35:24;;;;;;;7.95;4.00;;;;;;;15.46;85.90;100401.50;691302;28;4294;-56
2021/07/29 00:35:44;;;;;;;7.60;4.20;;;;;;;15.40;85.89;100405.19;692157;28;1346;-53
2021/07/29 00:36:05;;;;;;;7.03;4.00;;;;;;;15.39;85.01;100405.25;693395;28;1346;-52
2021/07/29 00:36:26;;;;;;;6.00;4.00;;;;;;;15.44;84.83;100406.84;691338;28;1169;-54
2021/07/29 00:36:46;;;;;;;5.88;3.88;;;;;;;15.46;84.90;100405.00;688419;28;1359;-53
2021/07/29 00:37:07;;;;;;;6.70;3.80;;;;;;;15.49;84.27;100404.94;688882;28;4016;-55
2021/07/29 00:37:27;;;;;;;6.10;4.05;;;;;;;15.52;85.68;100409.25;690788;28;1557;-54
2021/07/29 00:37:51;;;;;;;7.43;4.32;;;;;;;15.48;86.42;100407.63;691376;28;1208;-52
2021/07/29 00:38:12;;;;;;;8.30;4.30;;;;;;;15.46;86.20;100410.28;690972;28;4510;-56
2021/07/29 00:38:33;;;;;;;7.10;4.17;;;;;;;15.45;85.56;100412.94;691797;28;1333;-53
2021/07/29 00:38:55;;;;;;;7.95;3.97;;;;;;;15.47;85.25;100411.16;689909;28;2404;-56
2021/07/29 00:39:15;;;;;;;6.60;4.07;;;;;;;15.46;85.27;100410.28;692067;28;1412;-56
2021/07/29 00:39:35;;;;;;;6.72;4.05;;;;;;;15.47;85.10;100412.00;691866;28;1154;-55
2021/07/29 00:39:56;;;;;;;7.53;4.27;;;;;;;15.49;84.46;100419.84;691879;28;1261;-54
2021/07/29 00:40:17;;;;;;;6.93;4.30;;;;;;;15.50;84.69;100421.59;691107;28;1120;-54
2021/07/29 00:40:38;;;;;;;6.82;4.47;;;;;;;15.49;85.04;100419.84;690697;28;1262;-55
2021/07/29 00:40:58;;;;;;;7.20;4.57;;;;;;;15.58;85.31;100419.59;691684;28;1126;-55
2021/07/29 00:41:19;;;;;;;7.18;4.45;;;;;;;15.60;84.35;100411.66;690741;28;4539;-56
2021/07/29 00:41:39;;;;;;;6.80;4.20;;;;;;;15.60;84.43;100412.53;693170;28;3404;-54
2021/07/29 00:41:59;;;;;;;7.57;4.33;;;;;;;15.58;85.04;100413.47;693303;28;1558;-53
2021/07/29 00:42:20;;;;;;;7.37;4.47;;;;;;;15.56;84.78;100413.53;692272;28;1245;-55
2021/07/29 00:42:40;;;;;;;6.35;4.28;;;;;;;15.52;86.13;100409.25;693630;28;1555;-56
2021/07/29 00:43:00;;;;;;;5.83;3.77;;;;;;;15.48;86.06;100418.16;692145;28;1459;-56
2021/07/29 00:43:21;;;;;;;5.77;3.87;;;;;;;15.52;84.04;100419.78;693850;28;1303;-54
2021/07/29 00:43:42;;;;;;;5.97;4.00;;;;;;;15.57;83.63;100414.38;694503;28;1417;-53
2021/07/29 00:44:04;;;;;;;6.18;3.90;;;;;;;15.62;82.69;100410.69;692553;28;1022;-53
2021/07/29 00:44:24;;;;;;;7.43;3.97;;;;;;;15.68;84.08;100414.06;693037;28;4605;-53
2021/07/29 00:44:45;;;;;;;6.93;4.27;;;;;;;15.63;85.75;100420.34;693309;28;1237;-55
2021/07/29 00:45:06;;;;;;;7.03;4.50;;;;;;;15.60;85.59;100417.81;694120;28;1286;-53
2021/07/29 00:45:26;;;;;;;7.90;4.63;;;;;;;15.59;84.82;100421.34;692736;28;1898;-54
2021/07/29 00:45:48;;;;;;;6.45;4.10;;;;;;;15.62;83.46;100415.13;693508;28;3445;-55
2021/07/29 00:46:09;;;;;;;6.35;3.92;;;;;;;15.65;83.15;100415.03;694013;28;1451;-53
2021/07/29 00:46:32;;;;;;;7.10;4.00;;;;;;;15.64;84.47;100421.19;695477;28;1391;-56
2021/07/29 00:46:53;;;;;;;6.20;4.28;;;;;;;15.63;83.57;100417.69;695124;28;993;-56
2021/07/29 00:47:16;;;;;;;5.97;3.93;;;;;;;15.65;83.54;100407.97;694578;28;4376;-53
2021/07/29 00:47:42;;;;;;;6.25;3.75;;;;;;;15.65;84.18;100409.75;695583;28;1568;-53
2021/07/29 00:48:03;;;;;;;6.45;4.20;;;;;;;15.64;85.39;100414.13;696743;28;1179;-54
2021/07/29 00:48:23;;;;;;;6.37;4.10;;;;;;;15.63;84.72;100412.44;693585;28;1014;-52
2021/07/29 00:48:44;;;;;;;8.10;4.00;;;;;;;15.65;84.44;100417.66;693968;28;1156;-55
2021/07/29 00:49:05;;;;;;;7.20;4.13;;;;;;;15.64;85.74;100422.03;693671;28;3511;-53
2021/07/29 00:49:25;;;;;;;6.85;4.13;;;;;;;15.60;85.99;100417.81;692724;28;1378;-54
2021/07/29 00:49:47;;;;;;;7.00;4.37;;;;;;;15.62;85.33;100420.38;690347;28;1210;-52
2021/07/29 00:50:10;;;;;;;6.32;4.60;;;;;;;15.69;85.34;100418.41;691611;28;4377;-55
2021/07/29 00:50:30;;;;;;;6.22;4.55;;;;;;;15.68;84.86;100414.06;691894;28;1302;-55
2021/07/29 00:50:51;;;;;;;7.37;4.50;;;;;;;15.66;84.64;100419.38;691176;28;1417;-54
2021/07/29 00:51:11;;;;;;;8.13;4.57;;;;;;;15.66;83.89;100420.25;691288;28;1168;-51
2021/07/29 00:51:33;;;;;;;6.53;4.20;;;;;;;15.64;85.14;100419.41;691679;28;1271;-53
2021/07/29 00:51:54;;;;;;;6.72;4.20;;;;;;;15.62;85.10;100415.13;693808;28;1075;-55
2021/07/29 00:52:16;;;;;;;6.63;4.13;;;;;;;15.64;84.08;100411.50;693617;28;1139;-54
2021/07/29 00:52:36;;;;;;;6.10;3.90;;;;;;;15.68;83.21;100419.34;696677;28;1072;-54
2021/07/29 00:52:57;;;;;;;5.85;4.13;;;;;;;15.68;86.19;100417.56;696500;28;3709;-55
2021/07/29 00:53:17;;;;;;;6.83;4.57;;;;;;;15.68;84.32;100420.19;693143;28;4520;-56
2021/07/29 00:53:38;;;;;;;6.10;4.13;;;;;;;15.70;83.22;100422.78;690268;28;969;-56
2021/07/29 00:53:59;;;;;;;6.33;3.90;;;;;;;15.75;82.73;100420.88;690653;28;1189;-53
2021/07/29 00:54:23;;;;;;;7.13;4.20;;;;;;;15.81;81.76;100428.63;691063;28;1239;-55
2021/07/29 00:54:44;;;;;;;5.97;4.13;;;;;;;15.88;81.93;100427.53;690469;28;1067;-53
2021/07/29 00:55:05;;;;;;;6.50;3.97;;;;;;;15.90;80.92;100433.63;690992;28;1200;-54
2021/07/29 00:55:26;;;;;;;6.97;3.88;;;;;;;15.93;80.51;100436.16;690622;28;1304;-51
2021/07/29 00:55:47;;;;;;;6.45;3.80;;;;;;;15.96;80.29;100451.00;688180;28;1278;-52
2021/07/29 00:56:07;;;;;;;6.07;4.18;;;;;;;15.97;80.36;100450.97;687629;28;4639;-53
2021/07/29 00:56:28;;;;;;;6.30;4.30;;;;;;;15.97;82.79;100456.25;688752;28;2057;-51
2021/07/29 00:56:50;;;;;;;6.65;4.50;;;;;;;15.81;85.62;100458.50;689095;28;1211;-53
2021/07/29 00:57:10;;;;;;;6.72;4.57;;;;;;;15.74;85.99;100458.66;691981;28;1705;-50
2021/07/29 00:57:31;;;;;;;7.60;4.67;;;;;;;15.90;85.18;100457.34;692263;28;1179;-50
2021/07/29 00:57:53;;;;;;;8.00;4.68;;;;;;;16.03;85.08;100454.34;693551;28;1198;-49
2021/07/29 00:58:13;;;;;;;8.25;4.80;;;;;;;15.97;85.37;100453.59;693581;28;1036;-49
2021/07/29 00:58:34;;;;;;;8.70;4.73;;;;;;;15.82;86.19;100457.59;693522;28;1388;-50
2021/07/29 00:58:54;;;;;;;8.30;4.78;;;;;;;15.76;85.00;100455.09;692670;28;1304;-50
2021/07/29 00:59:14;;;;;;;6.57;4.50;;;;;;;15.80;83.49;100458.53;691420;28;5065;-51
2021/07/29 00:59:36;;;;;;;7.32;4.72;;;;;;;15.77;86.81;100461.22;692807;28;1527;-49
2021/07/29 00:59:56;;;;;;;8.88;5.20;;;;;;;15.58;87.95;100455.63;692832;28;1091;-50
2021/07/29 01:00:17;;;;;;;8.03;5.30;;;;;;;15.43;88.36;100451.66;690825;28;1298;-49
2021/07/29 01:00:37;;;;;;;7.87;5.23;;;;;;;15.48;88.29;100455.03;692184;28;1173;-51
2021/07/29 01:00:58;;;;;;;8.02;5.30;;;;;;;15.47;87.65;100448.03;693134;28;1090;-51
2021/07/29 01:01:18;;;;;;;9.70;5.33;;;;;;;15.48;88.09;100453.25;692878;28;1241;-50
2021/07/29 01:01:38;;;;;;;10.50;5.43;;;;;;;15.45;89.07;100452.47;691342;28;1056;-50
2021/07/29 01:01:59;;;;;;;10.97;5.43;;;;;;;15.46;87.45;100441.88;688676;28;2289;-51
2021/07/29 01:02:19;;;;;;;11.53;5.23;;;;;;;15.44;87.53;100451.63;690537;28;4510;-51
2021/07/29 01:02:40;;;;;;;8.68;5.10;;;;;;;15.45;86.87;100445.44;690534;28;3870;-49
2021/07/29 01:03:00;;;;;;;8.30;5.07;;;;;;;15.36;88.25;100453.59;693231;28;1648;-49
2021/07/29 01:03:21;;;;;;;8.40;5.05;;;;;;;15.26;87.54;100450.34;690783;28;1271;-49
2021/07/29 01:03:41;;;;;;;8.90;5.17;;;;;;;15.50;87.97;100447.94;690736;28;1092;-51
2021/07/29 01:04:02;;;;;;;8.20;5.18;;;;;;;15.59;86.65;100446.81;694187;28;1214;-50
2021/07/29 01:04:22;;;;;;;7.90;4.80;;;;;;;15.56;85.13;100453.03;692752;28;1226;-51
2021/07/29 01:04:46;;;;;;;8.27;4.90;;;;;;;15.66;86.24;100443.97;693263;28;1101;-50
2021/07/29 01:05:07;;;;;;;7.53;4.97;;;;;;;15.65;85.39;100442.22;693213;28;4551;-52
2021/07/29 01:05:27;;;;;;;8.40;5.20;;;;;;;15.70;85.74;100454.41;692930;28;2047;-51
2021/07/29 01:05:48;;;;;;;7.93;5.00;;;;;;;15.66;84.60;100449.22;693666;28;4238;-50
2021/07/29 01:06:08;;;;;;;8.82;4.82;;;;;;;15.73;86.61;100439.38;694062;28;1381;-52
2021/07/29 01:06:32;;;;;;;8.10;5.17;;;;;;;15.70;85.35;100446.50;689867;28;2029;-51
2021/07/29 01:06:52;;;;;;;6.53;5.05;;;;;;;15.79;86.38;100449.75;690846;28;1532;-50
2021/07/29 01:07:13;;;;;;;8.73;5.17;;;;;;;15.77;84.47;100448.03;692208;28;1973;-52
2021/07/29 01:07:33;;;;;;;8.70;5.00;;;;;;;15.74;86.24;100446.38;691270;28;1119;-50
2021/07/29 01:07:53;;;;;;;7.83;5.10;;;;;;;15.70;85.43;100452.66;691418;28;1235;-52
2021/07/29 01:08:14;;;;;;;7.68;4.75;;;;;;;15.69;85.18;100453.53;691571;28;5509;-50
2021/07/29 01:09:14;;;;;;;7.50;4.90;;;;;;;15.55;86.28;100450.44;696306;28;1237;-50
2021/07/29 01:09:34;;;;;;;7.47;5.20;;;;;;;15.47;86.70;100453.31;695252;28;1980;-50
2021/07/29 01:09:55;;;;;;;8.27;5.40;;;;;;;15.40;88.24;100449.97;695640;28;2201;-50
2021/07/29 01:10:17;;;;;;;9.37;5.57;;;;;;;15.33;88.83;100454.53;695323;28;3433;-50
2021/07/29 01:10:37;;;;;;;11.50;5.88;;;;;;;15.26;89.30;100449.50;692129;28;1329;-51
2021/07/29 01:10:58;;;;;;;7.73;5.60;;;;;;;15.15;89.62;100449.78;693367;28;1344;-50
2021/07/29 01:11:18;;;;;;;8.20;5.50;;;;;;;15.08;89.31;100456.13;690861;28;5254;-50
2021/07/29 01:11:43;;;;;;;7.95;5.20;;;;;;;15.09;89.72;100457.84;691359;28;1798;-50
2021/07/29 01:12:04;;;;;;;7.75;5.60;;;;;;;15.18;89.56;100446.22;690801;28;1311;-51
2021/07/29 01:12:24;;;;;;;9.47;5.80;;;;;;;15.13;89.72;100451.59;692082;28;1005;-53
2021/07/29 01:12:44;;;;;;;8.88;5.80;;;;;;;15.07;90.08;100454.41;690937;28;1161;-50
2021/07/29 01:13:05;;;;;;;9.50;6.10;;;;;;;15.04;90.23;100451.84;692616;28;1068;-52
2021/07/29 01:13:25;;;;;;;9.02;5.53;;;;;;;15.04;89.06;100451.84;694034;28;1068;-52
2021/07/29 01:13:45;;;;;;;7.70;4.90;;;;;;;15.07;88.32;100463.16;694296;28;1431;-50
2021/07/29 01:14:06;;;;;;;8.67;5.27;;;;;;;15.04;90.35;100463.25;694259;28;3218;-51
2021/07/29 01:14:26;;;;;;;8.45;5.70;;;;;;;14.97;91.08;100464.31;692829;28;4720;-49
2021/07/29 01:14:47;;;;;;;8.82;5.93;;;;;;;14.90;91.18;100460.97;694915;28;1456;-52
2021/07/29 01:15:08;;;;;;;9.33;5.87;;;;;;;14.93;90.92;100457.41;696425;28;1433;-51
2021/07/29 01:15:28;;;;;;;8.23;5.80;;;;;;;14.97;90.71;100459.91;696253;28;1198;-49
2021/07/29 01:15:48;;;;;;;6.93;5.50;;;;;;;15.00;89.66;100452.84;695405;28;1318;-53
2021/07/29 01:16:09;;;;;;;7.90;5.30;;;;;;;14.99;89.77;100459.84;696514;28;1447;-50
2021/07/29 01:16:29;;;;;;;9.60;5.63;;;;;;;14.96;90.75;100452.91;695787;28;1191;-49
2021/07/29 01:16:50;;;;;;;9.13;5.78;;;;;;;14.91;91.12;100457.44;696744;28;1473;-51
2021/07/29 01:17:10;;;;;;;8.40;5.80;;;;;;;14.92;90.05;100459.16;693316;28;5416;-49
2021/07/29 01:17:32;;;;;;;10.02;5.95;;;;;;;14.87;91.32;100454.91;694148;28;1182;-50
2021/07/29 01:18:01;;;;;;;9.93;5.85;;;;;;;14.85;90.70;100454.97;693793;28;1329;-50
2021/07/29 01:18:21;;;;;;;8.50;5.70;;;;;;;14.88;90.78;100448.75;693273;28;2349;-51
2021/07/29 01:18:41;;;;;;;7.93;5.80;;;;;;;14.90;89.75;100458.34;689077;28;3749;-51
2021/07/29 01:19:04;;;;;;;8.40;5.17;;;;;;;14.94;90.90;100456.50;693145;28;1201;-50
2021/07/29 01:19:26;;;;;;;8.65;5.63;;;;;;;14.84;91.92;100463.75;694865;28;1188;-49
2021/07/29 01:19:46;;;;;;;9.95;6.20;;;;;;;14.75;92.25;100459.59;693365;28;1318;-49
2021/07/29 01:20:08;;;;;;;8.90;5.97;;;;;;;14.68;92.04;100455.41;693755;28;4433;-49
2021/07/29 01:20:30;;;;;;;8.88;5.90;;;;;;;14.68;91.93;100463.28;694848;28;1139;-50
2021/07/29 01:20:50;;;;;;;8.23;5.97;;;;;;;14.75;91.81;100461.38;693603;28;1322;-50
2021/07/29 01:21:11;;;;;;;8.23;5.80;;;;;;;14.76;91.81;100450.81;694066;28;1917;-53
2021/07/29 01:21:31;;;;;;;9.82;5.82;;;;;;;14.75;92.03;100461.38;693967;28;3855;-50
2021/07/29 01:21:53;;;;;;;8.93;5.80;;;;;;;14.77;92.10;100459.53;693888;28;1386;-50
2021/07/29 01:22:14;;;;;;;7.93;5.57;;;;;;;14.78;91.00;100451.63;694070;28;1344;-49
2021/07/29 01:22:36;;;;;;;9.15;5.90;;;;;;;14.81;90.80;100455.94;694408;28;1252;-49
2021/07/29 01:22:56;;;;;;;8.45;5.32;;;;;;;14.84;89.39;100447.97;696130;28;1043;-50
2021/07/29 01:23:16;;;;;;;7.87;5.20;;;;;;;14.88;90.47;100454.88;695449;28;5398;-49
2021/07/29 01:23:37;;;;;;;8.77;5.63;;;;;;;14.85;91.23;100448.84;696785;28;1166;-49
2021/07/29 01:23:58;;;;;;;8.63;5.47;;;;;;;14.84;90.80;100450.59;693680;28;1375;-49
2021/07/29 01:24:18;;;;;;;8.40;5.07;;;;;;;14.86;90.97;100453.22;693253;28;1199;-49
2021/07/29 01:24:39;;;;;;;8.60;5.57;;;;;;;14.84;91.61;100445.31;694093;28;1039;-49
2021/07/29 01:25:00;;;;;;;7.87;5.83;;;;;;;14.82;91.99;100444.50;692618;28;1064;-51
2021/07/29 01:25:20;;;;;;;8.98;5.78;;;;;;;14.71;92.39;100442.16;693703;28;1162;-54
2021/07/29 01:25:41;;;;;;;9.25;6.00;;;;;;;14.69;92.37;100448.34;693787;28;3220;-50
2021/07/29 01:26:01;;;;;;;9.17;5.83;;;;;;;14.71;91.97;100457.09;697646;28;1382;-48
2021/07/29 01:26:22;;;;;;;7.50;5.00;;;;;;;14.75;90.63;100453.47;691557;28;4355;-49
2021/07/29 01:26:43;;;;;;;7.82;5.10;;;;;;;14.83;90.77;100446.25;692810;28;1021;-50
2021/07/29 01:27:04;;;;;;;8.27;5.88;;;;;;;14.87;91.24;100452.28;687711;28;2182;-49
2021/07/29 01:27:24;;;;;;;8.73;5.93;;;;;;;14.87;91.59;100447.91;689042;28;1335;-52
2021/07/29 01:27:44;;;;;;;8.48;5.72;;;;;;;15.02;91.54;100448.38;688892;28;1132;-48
2021/07/29 01:28:05;;;;;;;8.47;5.43;;;;;;;15.04;89.93;100449.22;688747;28;1069;-50
2021/07/29 01:28:25;;;;;;;9.63;5.38;;;;;;;15.00;90.75;100447.59;688057;28;1848;-48
2021/07/29 01:28:45;;;;;;;11.37;5.87;;;;;;;14.96;91.21;100442.38;689186;28;1612;-49
2021/07/29 01:29:06;;;;;;;10.57;5.90;;;;;;;14.98;90.40;100447.59;692162;28;4614;-48
2021/07/29 01:29:26;;;;;;;8.93;5.53;;;;;;;15.07;90.13;100443.88;691696;28;1615;-52
2021/07/29 01:29:47;;;;;;;7.63;5.33;;;;;;;15.07;89.30;100443.88;691142;28;1087;-50
2021/07/29 01:30:08;;;;;;;7.15;5.53;;;;;;;15.00;90.55;100444.94;691539;28;1353;-53
2021/07/29 01:30:28;;;;;;;7.60;5.63;;;;;;;14.94;91.18;100438.09;691478;28;1338;-51
2021/07/29 01:30:49;;;;;;;8.95;5.60;;;;;;;14.89;91.39;100438.19;691580;28;1242;-49
2021/07/29 01:31:09;;;;;;;8.50;5.57;;;;;;;14.85;91.67;100439.16;692028;28;1674;-48
2021/07/29 01:31:30;;;;;;;8.60;5.82;;;;;;;14.77;92.29;100441.13;693322;28;1604;-49
2021/07/29 01:31:50;;;;;;;8.17;5.80;;;;;;;14.70;92.22;100444.81;692822;28;1337;-51
2021/07/29 01:32:11;;;;;;;7.53;5.35;;;;;;;14.62;92.26;100444.97;693063;28;4436;-48
2021/07/29 01:32:31;;;;;;;6.97;5.40;;;;;;;14.60;92.55;100442.38;695737;28;1151;-50
2021/07/29 01:32:51;;;;;;;8.30;5.30;;;;;;;14.59;92.04;100445.94;692196;28;3539;-53
2021/07/29 01:33:12;;;;;;;9.68;5.47;;;;;;;14.62;92.23;100447.59;691926;28;1171;-51
2021/07/29 01:33:32;;;;;;;8.53;5.70;;;;;;;14.73;91.89;100444.75;690069;28;1562;-49
2021/07/29 01:33:54;;;;;;;7.60;5.70;;;;;;;14.87;91.58;100442.63;690757;28;1642;-50
2021/07/29 01:34:17;;;;;;;8.50;5.57;;;;;;;14.94;90.69;100438.09;690616;28;1264;-50
2021/07/29 01:34:37;;;;;;;7.65;5.30;;;;;;;14.91;91.08;100441.66;688148;28;1465;-51
2021/07/29 01:34:58;;;;;;;8.17;5.50;;;;;;;14.82;92.01;100439.25;688533;28;1214;-50
2021/07/29 01:35:19;;;;;;;8.63;5.93;;;;;;;14.76;92.09;100436.75;687611;28;4884;-52
2021/07/29 01:35:39;;;;;;;8.67;5.97;;;;;;;14.70;92.13;100435.16;689361;28;1535;-48
2021/07/29 01:35:59;;;;;;;8.68;5.80;;;;;;;14.68;91.77;100441.38;688367;28;1083;-48
2021/07/29 01:36:20;;;;;;;7.90;5.63;;;;;;;14.64;92.10;100444.06;688841;28;1202;-48
2021/07/29 01:36:40;;;;;;;7.68;5.90;;;;;;;14.60;92.68;100439.75;689939;28;1392;-50
2021/07/29 01:37:01;;;;;;;9.07;6.27;;;;;;;14.54;92.99;100442.56;695332;28;2456;-50
2021/07/29 01:37:21;;;;;;;9.70;6.00;;;;;;;14.52;92.29;100435.59;694289;28;3698;-49
2021/07/29 01:37:42;;;;;;;9.97;6.03;;;;;;;14.52;92.96;100433.81;694983;28;1417;-51
2021/07/29 01:38:02;;;;;;;8.18;5.72;;;;;;;14.54;91.95;100439.91;694596;28;2050;-49
2021/07/29 01:38:22;;;;;;;8.67;5.93;;;;;;;14.52;93.03;100436.44;691756;28;5307;-53
2021/07/29 01:38:43;;;;;;;9.85;6.45;;;;;;;14.55;92.76;100439.03;691960;28;2256;-48
2021/07/29 01:39:04;;;;;;;8.67;5.90;;;;;;;14.54;92.78;100434.66;693713;28;1478;-50
2021/07/29 01:39:24;;;;;;;10.18;6.20;;;;;;;14.53;92.86;100438.19;693862;28;1188;-48
2021/07/29 01:39:45;;;;;;;9.38;5.78;;;;;;;14.55;92.81;100441.66;692851;28;1653;-49
2021/07/29 01:40:07;;;;;;;10.23;6.47;;;;;;;14.54;93.14;100439.91;695290;28;985;-49
2021/07/29 01:40:27;;;;;;;9.55;6.30;;;;;;;14.68;92.68;100433.50;694213;28;3358;-49
2021/07/29 01:40:48;;;;;;;9.35;6.00;;;;;;;14.90;91.30;100433.81;692913;28;2457;-49
2021/07/29 01:41:08;;;;;;;10.03;6.00;;;;;;;14.96;90.52;100429.22;692126;28;4341;-51
2021/07/29 01:41:28;;;;;;;8.73;5.53;;;;;;;15.12;88.98;100431.47;691760;28;3513;-48
2021/07/29 01:41:49;;;;;;;8.83;5.40;;;;;;;15.21;87.87;100430.34;692114;28;1550;-50